Terminal Aerodrome Forecast
Issued by NWS Medford, OR

Home | Current Version | Previous Version | Text Only | Print | Product List | Glossary On
Versions: 1 2 3 4 5 6 7 8 9 10 11 12 13 14 15 16 17 18 19 20 21 22 23 24 25 26
000
FTUS46 KMFR 272002 AAB
TAFMFR
TAF AMD
KMFR 272002Z 2720/2818 18003KT P6SM VCSH SCT012 BKN060
     FM272200 18004KT P6SM VCSH SCT020 OVC080
     FM280700 16005KT 4SM -RA BR BKN015 OVC040=

USA.gov is the U.S. government's official web portal to all federal, state and local government web resources and services.